createdAt,value
2017-03-26T05:37:24.076Z,963.23
2017-03-26T05:38:04.632Z,963.22
2017-03-26T05:38:45.216Z,963.21
2017-03-26T05:39:25.798Z,963.21
2017-03-26T05:40:06.377Z,963.22
2017-03-26T05:40:46.946Z,963.27
2017-03-26T05:41:27.516Z,963.3
2017-03-26T05:42:08.091Z,963.33
2017-03-26T05:42:48.677Z,963.34
2017-03-26T05:43:29.250Z,963.37
2017-03-26T05:50:56.378Z,963.31
2017-03-26T05:51:36.958Z,963.31
2017-03-26T05:52:17.537Z,963.32
2017-03-26T05:52:58.081Z,963.32
2017-03-26T05:53:38.665Z,963.37
2017-03-26T05:54:19.246Z,963.36
2017-03-26T05:54:59.821Z,963.4
2017-03-26T05:55:40.380Z,963.39
2017-03-26T05:56:20.962Z,963.39
2017-03-26T05:57:01.536Z,963.39
2017-03-26T05:57:42.119Z,963.42
2017-03-26T05:58:22.701Z,963.46
2017-03-26T05:59:03.275Z,963.46
2017-03-26T05:59:43.860Z,963.53
2017-03-26T06:00:24.443Z,963.55
2017-03-26T06:01:05.021Z,963.54
2017-03-26T06:01:45.596Z,963.54
2017-03-26T06:02:26.183Z,963.53
2017-03-26T06:03:06.761Z,963.56
2017-03-26T06:03:47.336Z,963.6
2017-03-26T06:04:27.913Z,963.6
2017-03-26T06:05:08.491Z,963.59
2017-03-26T06:05:49.082Z,963.57
2017-03-26T06:06:29.662Z,963.64
2017-03-26T06:07:10.243Z,963.63
2017-03-26T06:07:50.804Z,963.65
2017-03-26T06:08:31.378Z,963.68
2017-03-26T06:11:10.210Z,963.75
2017-03-26T06:11:50.782Z,963.75
2017-03-26T06:12:31.358Z,963.77
2017-03-26T06:13:11.942Z,963.73
2017-03-26T06:13:52.523Z,963.71
2017-03-26T06:14:33.102Z,963.72
2017-03-26T06:15:13.672Z,963.75
2017-03-26T06:15:54.244Z,963.75
2017-03-26T06:16:34.821Z,963.75
2017-03-26T06:17:15.429Z,963.76
2017-03-26T06:17:55.957Z,963.81
2017-03-26T06:18:36.531Z,963.77
2017-03-26T06:19:17.106Z,963.79
2017-03-26T06:19:57.682Z,963.79
2017-03-26T06:20:38.261Z,963.81
2017-03-26T06:21:18.823Z,963.83
2017-03-26T06:21:59.412Z,963.84
2017-03-26T06:22:39.984Z,963.81
2017-03-26T06:23:20.559Z,963.83
2017-03-26T06:24:01.309Z,963.82
2017-03-26T06:24:41.895Z,963.84
2017-03-26T06:25:22.475Z,963.83
2017-03-26T06:26:03.045Z,963.86
2017-03-26T06:26:43.631Z,963.9
2017-03-26T06:27:24.203Z,963.91
2017-03-26T06:28:04.786Z,963.95
2017-03-26T06:28:45.368Z,963.98
2017-03-26T06:29:25.945Z,963.99
2017-03-26T06:30:06.525Z,963.99
2017-03-26T06:30:47.108Z,963.96
2017-03-26T06:31:27.686Z,964.02
2017-03-26T06:32:08.269Z,964
2017-03-26T06:32:48.840Z,964.04
2017-03-26T06:33:29.421Z,964.07
2017-03-26T06:34:10.001Z,964.1
2017-03-26T06:34:50.582Z,964.09
2017-03-26T06:35:31.163Z,964.12
2017-03-26T06:36:11.743Z,964.12
2017-03-26T06:36:52.325Z,964.04
2017-03-26T06:37:32.903Z,964.11
2017-03-26T06:38:13.485Z,964.12
2017-03-26T06:38:54.058Z,964.13
2017-03-26T06:39:34.648Z,964.1
2017-03-26T06:40:15.222Z,964.11
2017-03-26T06:40:55.912Z,964.07
2017-03-26T06:41:36.496Z,964.07
2017-03-26T06:42:17.193Z,964.06
2017-03-26T06:42:58.155Z,964.06
2017-03-26T06:43:38.769Z,964.07
2017-03-26T06:44:19.507Z,964.05
2017-03-26T06:45:00.320Z,963.98
2017-03-26T06:45:40.951Z,963.98
2017-03-26T06:46:21.679Z,964.05
2017-03-26T06:47:02.653Z,963.94
2017-03-26T06:47:43.569Z,963.98
2017-03-26T06:48:24.338Z,964.01
2017-03-26T06:49:05.201Z,964
2017-03-26T06:49:46.115Z,964.05
2017-03-26T06:50:27.138Z,964
2017-03-26T06:51:07.887Z,964.04
2017-03-26T06:51:48.687Z,964.04
2017-03-26T06:52:29.566Z,964.05
2017-03-26T06:53:10.227Z,964.09
2017-03-26T06:53:50.818Z,964.07
2017-03-26T06:54:31.510Z,964.03
2017-03-26T06:55:12.298Z,964
2017-03-26T06:55:52.881Z,964.05
2017-03-26T06:56:33.455Z,964.04
2017-03-26T06:57:14.035Z,964.04
2017-03-26T06:57:54.617Z,964.02
2017-03-26T06:58:35.233Z,963.89
2017-03-26T06:59:16.035Z,963.99
2017-03-26T06:59:56.992Z,964.02
2017-03-26T07:00:37.579Z,964.04
2017-03-26T07:01:18.157Z,964.05
2017-03-26T07:01:59.025Z,964.09
2017-03-26T07:02:39.605Z,964.15
2017-03-26T07:03:20.192Z,964.13
2017-03-26T07:04:00.773Z,964.2
2017-03-26T07:04:41.350Z,964.24
2017-03-26T07:05:21.939Z,964.22
2017-03-26T07:06:03.022Z,964.26
2017-03-26T07:06:43.874Z,964.28
2017-03-26T07:07:24.444Z,964.34
2017-03-26T07:08:05.308Z,964.35
2017-03-26T07:08:45.881Z,964.29
2017-03-26T07:09:26.463Z,964.32
2017-03-26T07:10:07.164Z,964.38
2017-03-26T07:10:47.751Z,964.38
2017-03-26T07:11:28.674Z,964.35
2017-03-26T07:12:09.460Z,964.32
2017-03-26T07:12:50.047Z,964.36
2017-03-26T07:13:30.633Z,964.36
2017-03-26T07:14:11.559Z,964.33
2017-03-26T07:14:52.145Z,964.32
2017-03-26T07:15:32.863Z,964.37
2017-03-26T07:16:13.770Z,964.39
2017-03-26T07:16:54.436Z,964.4
2017-03-26T07:17:35.167Z,964.41
2017-03-26T07:18:15.749Z,964.41
2017-03-26T07:18:56.338Z,964.42
2017-03-26T07:19:36.918Z,964.38
2017-03-26T07:20:17.499Z,964.39
2017-03-26T07:20:58.268Z,964.39
2017-03-26T07:21:38.921Z,964.39
2017-03-26T07:22:19.758Z,964.39
2017-03-26T07:23:00.437Z,964.36
2017-03-26T07:23:41.305Z,964.37
2017-03-26T07:24:21.889Z,964.37
2017-03-26T07:25:02.625Z,964.36
2017-03-26T07:25:43.440Z,964.35
2017-03-26T07:26:24.155Z,964.32
2017-03-26T07:27:04.735Z,964.36
2017-03-26T07:27:45.540Z,964.37
2017-03-26T07:28:26.687Z,964.39
2017-03-26T07:29:07.269Z,964.36
2017-03-26T07:29:48.101Z,964.39
2017-03-26T07:30:28.810Z,964.39
2017-03-26T07:31:09.591Z,964.36
2017-03-26T07:31:50.439Z,964.35
2017-03-26T07:32:31.066Z,964.36
2017-03-26T07:33:11.662Z,964.31
2017-03-26T07:33:52.662Z,964.3
2017-03-26T07:34:33.232Z,964.31
2017-03-26T07:35:13.811Z,964.28
2017-03-26T07:35:54.391Z,964.3
2017-03-26T07:36:34.965Z,964.31
2017-03-26T07:37:15.542Z,964.31
2017-03-26T07:37:56.138Z,964.35
2017-03-26T07:38:37.013Z,964.29
2017-03-26T07:39:17.976Z,964.29
2017-03-26T07:39:58.693Z,964.29
2017-03-26T07:40:39.738Z,964.36
2017-03-26T07:41:20.611Z,964.35
2017-03-26T07:42:01.327Z,964.34
2017-03-26T07:42:41.930Z,964.33
2017-03-26T07:43:22.524Z,964.33
2017-03-26T07:44:03.245Z,964.38
2017-03-26T07:44:43.814Z,964.33
2017-03-26T07:45:24.401Z,964.35
2017-03-26T07:46:04.978Z,964.38
2017-03-26T07:46:45.569Z,964.38
2017-03-26T07:47:26.157Z,964.39
2017-03-26T07:48:06.845Z,964.36
2017-03-26T07:48:47.536Z,964.33
2017-03-26T07:49:28.388Z,964.35
2017-03-26T07:50:09.294Z,964.34
2017-03-26T07:50:49.950Z,964.37
2017-03-26T07:51:30.541Z,964.37
2017-03-26T07:52:11.122Z,964.37
2017-03-26T07:52:51.704Z,964.34
2017-03-26T07:53:32.282Z,964.34
2017-03-26T07:54:12.878Z,964.34
2017-03-26T07:54:53.447Z,964.37
2017-03-26T07:55:34.760Z,964.41
2017-03-26T07:56:15.405Z,964.42
2017-03-26T07:56:56.198Z,964.56
2017-03-26T07:57:36.939Z,964.38
2017-03-26T07:58:17.529Z,964.37
2017-03-26T07:58:58.234Z,964.34
2017-03-26T07:59:38.820Z,964.4
2017-03-26T08:00:19.403Z,964.41
2017-03-26T08:00:59.983Z,964.39
2017-03-26T08:01:40.575Z,964.42
2017-03-26T08:02:21.152Z,964.42
2017-03-26T08:03:01.735Z,964.47
2017-03-26T08:03:42.309Z,964.48
2017-03-26T08:04:22.890Z,964.48
2017-03-26T08:05:03.464Z,964.51
2017-03-26T08:05:44.086Z,964.52
2017-03-26T08:06:24.630Z,964.54
2017-03-26T08:07:05.217Z,964.53
2017-03-26T08:07:45.790Z,964.54
2017-03-26T08:08:26.371Z,964.57
2017-03-26T08:09:06.951Z,964.56
2017-03-26T08:09:47.523Z,964.59
2017-03-26T08:10:28.114Z,964.59
2017-03-26T08:11:08.700Z,964.58
2017-03-26T08:11:49.285Z,964.6
2017-03-26T08:12:29.872Z,964.57
2017-03-26T08:13:10.611Z,964.6
2017-03-26T08:13:51.190Z,964.6
2017-03-26T08:14:31.772Z,964.6
2017-03-26T08:15:12.349Z,964.6
2017-03-26T08:15:52.941Z,964.6
2017-03-26T08:16:33.525Z,964.65
2017-03-26T08:17:14.104Z,964.66
2017-03-26T08:17:54.686Z,964.64
2017-03-26T08:18:35.264Z,964.65
2017-03-26T08:19:15.848Z,964.63
2017-03-26T08:19:56.416Z,964.64
2017-03-26T08:20:36.997Z,964.67
2017-03-26T08:21:17.573Z,964.69
2017-03-26T08:21:58.158Z,964.66
2017-03-26T08:22:38.730Z,964.66
2017-03-26T08:23:19.706Z,964.67
2017-03-26T08:24:00.662Z,964.66
2017-03-26T08:24:41.242Z,964.69
2017-03-26T08:25:21.818Z,964.68
2017-03-26T08:26:02.407Z,964.64
2017-03-26T08:26:42.967Z,964.58
2017-03-26T08:27:23.546Z,964.61
2017-03-26T08:28:04.133Z,964.64
2017-03-26T08:28:44.707Z,964.61
2017-03-26T08:29:25.286Z,964.71
2017-03-26T08:30:05.867Z,964.72
2017-03-26T08:30:46.446Z,964.64
2017-03-26T08:31:27.035Z,964.68
2017-03-26T08:32:07.611Z,964.62
2017-03-26T08:32:48.202Z,964.67
2017-03-26T08:33:28.782Z,964.61
2017-03-26T08:34:09.368Z,964.61
2017-03-26T08:34:49.962Z,964.6
2017-03-26T08:35:30.560Z,964.63
2017-03-26T08:36:11.150Z,964.64
2017-03-26T08:36:51.729Z,964.65
2017-03-26T08:37:32.312Z,964.63
2017-03-26T08:38:12.898Z,964.67
2017-03-26T08:38:53.485Z,964.71
2017-03-26T08:39:34.066Z,964.67
2017-03-26T08:40:14.649Z,964.67
2017-03-26T08:40:55.238Z,964.67
2017-03-26T08:41:35.821Z,964.71
2017-03-26T08:42:16.393Z,964.74
2017-03-26T08:42:56.978Z,964.7
2017-03-26T08:43:37.545Z,964.71
2017-03-26T08:44:18.131Z,964.75
2017-03-26T08:44:58.711Z,964.74
2017-03-26T08:45:39.290Z,964.77
2017-03-26T08:46:19.880Z,964.81
2017-03-26T08:47:00.468Z,964.8
2017-03-26T08:47:41.053Z,964.78
2017-03-26T08:48:21.631Z,964.83
2017-03-26T08:49:02.214Z,964.81
2017-03-26T08:49:42.797Z,964.81
2017-03-26T08:50:23.376Z,964.86
2017-03-26T08:51:03.947Z,964.82
2017-03-26T08:51:44.533Z,964.84
2017-03-26T08:52:25.116Z,964.84
2017-03-26T08:53:05.678Z,964.89
2017-03-26T08:53:46.264Z,964.86
2017-03-26T08:54:26.856Z,964.85
2017-03-26T08:55:07.430Z,964.91
2017-03-26T08:55:48.013Z,964.87
2017-03-26T08:56:28.582Z,964.9
2017-03-26T08:57:09.157Z,964.91
2017-03-26T08:57:49.740Z,964.89
2017-03-26T08:58:30.312Z,964.97
2017-03-26T08:59:10.897Z,964.93
2017-03-26T08:59:51.479Z,964.94
2017-03-26T09:00:32.059Z,964.97
2017-03-26T09:01:12.664Z,964.96
2017-03-26T09:01:53.220Z,964.92
2017-03-26T09:02:33.800Z,964.94
2017-03-26T09:03:14.398Z,964.95
2017-03-26T09:03:54.972Z,964.95
2017-03-26T09:04:35.557Z,964.99
2017-03-26T09:05:16.134Z,965.01
2017-03-26T09:05:56.719Z,964.94
2017-03-26T09:06:37.294Z,964.97
2017-03-26T09:07:17.880Z,964.95
2017-03-26T09:07:58.704Z,964.94
2017-03-26T09:08:39.272Z,964.95
2017-03-26T09:09:20.159Z,964.93
2017-03-26T09:10:01.007Z,964.94
2017-03-26T09:10:41.592Z,964.98
2017-03-26T09:11:22.478Z,965.02
2017-03-26T09:12:03.085Z,965.07
2017-03-26T09:12:43.873Z,965
2017-03-26T09:13:24.953Z,965.02
2017-03-26T09:14:05.895Z,965
2017-03-26T09:14:46.701Z,964.98
2017-03-26T09:15:27.283Z,964.99
2017-03-26T09:16:08.118Z,965.04
2017-03-26T09:16:49.268Z,965.04
2017-03-26T09:17:30.062Z,965.07
2017-03-26T09:18:10.647Z,965.03
2017-03-26T09:18:51.219Z,964.97
2017-03-26T09:19:32.252Z,965.05
2017-03-26T09:20:12.802Z,965.03
2017-03-26T09:20:53.831Z,965.09
2017-03-26T09:21:35.012Z,965.12
2017-03-26T09:22:16.106Z,965.11
2017-03-26T09:22:57.034Z,965.16
2017-03-26T09:23:37.931Z,965.13
2017-03-26T09:24:18.808Z,965.16
2017-03-26T09:24:59.730Z,965.22
2017-03-26T09:25:40.529Z,965.16
2017-03-26T09:26:21.378Z,965.15
2017-03-26T09:27:02.041Z,965.18
2017-03-26T09:27:42.654Z,965.19
2017-03-26T09:28:23.577Z,965.22
2017-03-26T09:29:04.966Z,965.24
2017-03-26T09:29:45.697Z,965.22
2017-03-26T09:30:26.322Z,965.17
2017-03-26T09:31:07.069Z,965.16
2017-03-26T09:31:47.643Z,965.21
2017-03-26T09:32:28.225Z,965.2
2017-03-26T09:33:08.795Z,965.21
2017-03-26T09:33:49.827Z,965.19
2017-03-26T09:34:30.543Z,965.25
2017-03-26T09:35:11.132Z,965.28
2017-03-26T09:35:51.965Z,965.24
2017-03-26T09:36:32.542Z,965.23
2017-03-26T09:37:13.510Z,965.25
2017-03-26T09:37:54.091Z,965.22
2017-03-26T09:38:34.674Z,965.32
2017-03-26T09:39:15.414Z,965.24
2017-03-26T09:39:55.997Z,965.32
2017-03-26T09:40:36.579Z,965.25
2017-03-26T09:41:17.596Z,965.25
2017-03-26T09:41:58.313Z,965.23
2017-03-26T09:42:38.963Z,965.2
2017-03-26T09:43:19.749Z,965.18
2017-03-26T09:44:00.855Z,965.18
2017-03-26T09:44:42.006Z,965.13
2017-03-26T09:45:22.847Z,965.21
2017-03-26T09:46:03.564Z,965.24
2017-03-26T09:46:44.141Z,965.2
2017-03-26T09:47:24.728Z,965.21
2017-03-26T09:48:05.343Z,965.24
2017-03-26T09:48:45.940Z,965.23
2017-03-26T09:49:26.517Z,965.18
2017-03-26T09:50:07.089Z,965.2
2017-03-26T09:50:47.688Z,965.21
2017-03-26T09:51:28.257Z,965.23
2017-03-26T09:52:08.835Z,965.23
2017-03-26T09:52:49.419Z,965.24
2017-03-26T09:53:30.002Z,965.21
2017-03-26T09:54:10.597Z,965.22
2017-03-26T09:54:51.173Z,965.25
2017-03-26T09:55:31.752Z,965.27
2017-03-26T09:56:12.336Z,965.27
2017-03-26T09:56:52.919Z,965.22
2017-03-26T09:57:33.500Z,965.28
2017-03-26T09:58:14.080Z,965.21
2017-03-26T09:58:54.665Z,965.21
2017-03-26T09:59:35.244Z,965.2
2017-03-26T10:00:15.824Z,965.21
2017-03-26T10:00:56.401Z,965.23
2017-03-26T10:01:36.985Z,965.2
2017-03-26T10:02:17.569Z,965.24
2017-03-26T10:02:58.152Z,965.26
2017-03-26T10:03:38.728Z,965.26
2017-03-26T10:04:19.315Z,965.23
2017-03-26T10:04:59.902Z,965.25
2017-03-26T10:05:40.480Z,965.28
2017-03-26T10:06:21.066Z,965.27
2017-03-26T10:07:01.639Z,965.23
2017-03-26T10:07:42.225Z,965.22
2017-03-26T10:08:22.820Z,965.23
2017-03-26T10:09:03.411Z,965.28
2017-03-26T10:09:43.984Z,965.13
2017-03-26T10:10:24.557Z,965.25
2017-03-26T10:11:05.142Z,965.2
2017-03-26T10:11:45.718Z,965.19
2017-03-26T10:12:26.305Z,965.24
2017-03-26T10:13:06.887Z,965.22
2017-03-26T10:13:47.457Z,965.22
2017-03-26T10:14:28.052Z,965.27
2017-03-26T10:15:08.626Z,965.28
2017-03-26T10:15:49.212Z,965.24
2017-03-26T10:16:29.787Z,965.3
2017-03-26T10:17:10.378Z,965.28
2017-03-26T10:17:50.950Z,965.29
2017-03-26T10:18:31.529Z,965.27
2017-03-26T10:19:12.111Z,965.32
2017-03-26T10:19:52.698Z,965.22
2017-03-26T10:20:33.276Z,965.25
2017-03-26T10:21:13.855Z,965.22
2017-03-26T10:21:54.442Z,965.27
2017-03-26T10:22:35.029Z,965.27
2017-03-26T10:23:15.615Z,965.25
2017-03-26T10:23:56.194Z,965.26
2017-03-26T10:24:36.761Z,965.26
2017-03-26T10:25:17.336Z,965.31
2017-03-26T10:25:57.908Z,965.29
2017-03-26T10:26:38.495Z,965.26
2017-03-26T10:27:19.072Z,965.3
2017-03-26T10:27:59.655Z,965.27
2017-03-26T10:28:40.245Z,965.26
2017-03-26T10:29:20.835Z,965.27
2017-03-26T10:30:01.416Z,965.27
2017-03-26T10:30:42.010Z,965.26
2017-03-26T10:31:22.878Z,965.31
2017-03-26T10:32:04.121Z,965.31
2017-03-26T10:32:44.702Z,965.33
2017-03-26T10:33:25.414Z,965.32
2017-03-26T10:34:06.405Z,965.33
2017-03-26T10:34:47.149Z,965.33
2017-03-26T10:35:27.733Z,965.32
2017-03-26T10:36:08.314Z,965.3
2017-03-26T10:36:49.299Z,965.25
2017-03-26T10:37:29.931Z,965.26
2017-03-26T10:38:10.517Z,965.28
2017-03-26T10:38:51.151Z,965.31
2017-03-26T10:39:31.673Z,965.36
2017-03-26T10:40:12.241Z,965.26
2017-03-26T10:40:52.800Z,965.29
2017-03-26T10:41:33.381Z,965.28
2017-03-26T10:42:13.975Z,965.3
2017-03-26T10:42:54.544Z,965.31
2017-03-26T10:43:35.123Z,965.23
2017-03-26T10:44:15.720Z,965.22
2017-03-26T10:44:56.297Z,965.23
2017-03-26T10:45:36.881Z,965.24
2017-03-26T10:46:17.527Z,965.19
2017-03-26T10:46:58.107Z,965.31
2017-03-26T10:47:38.692Z,965.27
2017-03-26T10:48:19.270Z,965.24
2017-03-26T10:48:59.847Z,965.21
2017-03-26T10:49:40.435Z,965.23
2017-03-26T10:50:21.020Z,965.21
2017-03-26T10:51:01.603Z,965.27
2017-03-26T10:51:42.179Z,965.24
2017-03-26T10:52:22.755Z,965.27
2017-03-26T10:53:03.341Z,965.29
2017-03-26T10:53:43.923Z,965.27
2017-03-26T10:54:24.497Z,965.26
2017-03-26T10:55:05.079Z,965.24
2017-03-26T10:55:45.663Z,965.26
2017-03-26T10:56:26.251Z,965.28
2017-03-26T10:57:06.842Z,965.2
2017-03-26T10:57:47.449Z,965.22
2017-03-26T10:58:28.024Z,965.23
2017-03-26T10:59:08.605Z,965.25
2017-03-26T10:59:49.198Z,965.24
2017-03-26T11:00:29.774Z,965.22
2017-03-26T11:01:10.356Z,965.15
2017-03-26T11:01:50.929Z,965.18
2017-03-26T11:02:31.632Z,965.22
2017-03-26T11:03:12.471Z,965.21
2017-03-26T11:03:53.257Z,965.25
2017-03-26T11:04:34.244Z,965.26
2017-03-26T11:05:14.924Z,965.29
2017-03-26T11:05:56.004Z,965.32
2017-03-26T11:06:36.750Z,965.28
2017-03-26T11:07:17.481Z,965.22
2017-03-26T11:07:58.082Z,965.25
2017-03-26T11:08:38.668Z,965.27
2017-03-26T11:09:19.258Z,965.26
2017-03-26T11:09:59.839Z,965.37
2017-03-26T11:10:40.611Z,965.3
2017-03-26T11:11:21.198Z,965.34
2017-03-26T11:12:01.808Z,965.31
2017-03-26T11:12:42.627Z,965.35
2017-03-26T11:13:23.349Z,965.37
2017-03-26T11:14:03.942Z,965.34
2017-03-26T11:14:44.784Z,965.31
2017-03-26T11:15:25.370Z,965.4
2017-03-26T11:16:06.104Z,965.37
2017-03-26T11:16:46.787Z,965.43
2017-03-26T11:17:27.459Z,965.37
2017-03-26T11:18:08.506Z,965.47
2017-03-26T11:18:49.273Z,965.37
2017-03-26T11:19:30.038Z,965.39
2017-03-26T11:20:10.618Z,965.39
2017-03-26T11:20:51.203Z,965.43
2017-03-26T11:21:31.844Z,965.37
2017-03-26T11:22:12.943Z,965.39
2017-03-26T11:22:53.528Z,965.39
2017-03-26T11:23:34.434Z,965.44
2017-03-26T11:24:15.261Z,965.44
2017-03-26T11:24:55.849Z,965.42
2017-03-26T11:25:36.433Z,965.45
2017-03-26T11:26:17.022Z,965.42
2017-03-26T11:26:57.606Z,965.42
2017-03-26T11:27:38.346Z,965.44
2017-03-26T11:28:18.934Z,965.43
2017-03-26T11:28:59.517Z,965.43
2017-03-26T11:29:40.105Z,965.46
2017-03-26T11:30:20.936Z,965.5
2017-03-26T11:31:01.958Z,965.47
2017-03-26T11:32:59.903Z,965.46
2017-03-26T11:33:40.789Z,965.42
2017-03-26T11:34:21.364Z,965.43
2017-03-26T11:35:01.946Z,965.44
2017-03-26T11:35:42.636Z,965.43
2017-03-26T11:36:23.531Z,965.44
2017-03-26T11:37:04.163Z,965.37
2017-03-26T11:37:44.946Z,965.37
2017-03-26T11:38:25.939Z,965.39
2017-03-26T11:39:06.708Z,965.34
2017-03-26T11:39:47.469Z,965.42
2017-03-26T11:40:29.027Z,965.39
2017-03-26T11:41:10.316Z,965.46
2017-03-26T11:41:50.890Z,965.43
2017-03-26T11:42:31.877Z,965.4
2017-03-26T11:43:12.454Z,965.5
2017-03-26T11:43:53.194Z,965.46
2017-03-26T11:44:34.778Z,965.43
2017-03-26T11:45:16.128Z,965.46
2017-03-26T11:45:57.017Z,965.44
2017-03-26T11:46:38.150Z,965.43
2017-03-26T11:47:19.040Z,965.45
2017-03-26T11:47:59.620Z,965.44
2017-03-26T11:48:40.285Z,965.39
2017-03-26T11:49:20.848Z,965.51
2017-03-26T11:50:01.626Z,965.51
2017-03-26T11:50:42.208Z,965.5
2017-03-26T11:51:22.783Z,965.53
2017-03-26T11:52:03.821Z,965.53
2017-03-26T11:52:44.524Z,965.48
2017-03-26T11:53:25.230Z,965.5
2017-03-26T11:54:05.867Z,965.45
2017-03-26T11:54:46.688Z,965.59
2017-03-26T11:55:27.431Z,965.48
2017-03-26T11:56:08.207Z,965.44
2017-03-26T11:56:48.929Z,965.4
2017-03-26T11:57:29.503Z,965.38
2017-03-26T11:58:10.452Z,965.36
2017-03-26T11:58:51.077Z,965.4
2017-03-26T11:59:32.023Z,965.43
2017-03-26T12:00:12.858Z,965.37
2017-03-26T12:00:53.425Z,965.38
2017-03-26T12:01:34.036Z,965.35
2017-03-26T12:02:14.594Z,965.32
2017-03-26T12:02:55.176Z,965.3
2017-03-26T12:03:35.968Z,965.33
2017-03-26T12:04:16.514Z,965.29
2017-03-26T12:04:57.094Z,965.32
2017-03-26T12:05:37.672Z,965.37
2017-03-26T12:06:18.335Z,965.29
2017-03-26T12:06:58.908Z,965.29
2017-03-26T12:07:39.464Z,965.3
2017-03-26T12:08:20.042Z,965.3
2017-03-26T12:09:00.746Z,965.31
2017-03-26T12:09:41.331Z,965.33
2017-03-26T12:10:21.910Z,965.31
2017-03-26T12:11:02.494Z,965.32
2017-03-26T12:11:43.069Z,965.37
2017-03-26T12:12:23.863Z,965.32
2017-03-26T12:13:04.799Z,965.39
2017-03-26T12:13:45.727Z,965.35
2017-03-26T12:14:26.821Z,965.32
2017-03-26T12:15:07.721Z,965.34
2017-03-26T12:15:48.294Z,965.3
2017-03-26T12:16:28.978Z,965.29
2017-03-26T12:17:09.562Z,965.27
2017-03-26T12:17:50.783Z,965.26
2017-03-26T12:18:31.573Z,965.3
2017-03-26T12:19:12.156Z,965.24
2017-03-26T12:19:52.742Z,965.35
2017-03-26T12:20:33.563Z,965.4
2017-03-26T12:21:14.353Z,965.29
2017-03-26T12:21:54.990Z,965.29
2017-03-26T12:22:35.693Z,965.29
2017-03-26T12:23:16.274Z,965.25
2017-03-26T12:23:57.046Z,965.22
2017-03-26T12:24:37.721Z,965.29
2017-03-26T12:25:18.401Z,965.24
2017-03-26T12:25:58.976Z,965.28
2017-03-26T12:26:39.558Z,965.34
2017-03-26T12:27:20.326Z,965.31
2017-03-26T12:28:00.958Z,965.31
2017-03-26T12:28:41.670Z,965.23
2017-03-26T12:29:22.254Z,965.34
2017-03-26T12:30:02.838Z,965.3
2017-03-26T12:30:43.578Z,965.39
2017-03-26T12:31:24.343Z,965.36
2017-03-26T12:32:04.955Z,965.38
2017-03-26T12:32:45.635Z,965.35
2017-03-26T12:33:26.221Z,965.39
2017-03-26T12:34:06.818Z,965.4
2017-03-26T12:34:47.450Z,965.33
2017-03-26T12:35:28.138Z,965.36
2017-03-26T12:36:08.898Z,965.34
2017-03-26T12:36:49.468Z,965.3
2017-03-26T12:37:30.039Z,965.36
2017-03-26T12:38:10.620Z,965.33
2017-03-26T12:38:51.205Z,965.32
2017-03-26T12:39:32.062Z,965.28
2017-03-26T12:40:12.646Z,965.31
2017-03-26T12:40:53.504Z,965.33
2017-03-26T12:41:34.281Z,965.34
2017-03-26T12:42:14.875Z,965.31
2017-03-26T12:42:55.434Z,965.3
2017-03-26T12:43:36.005Z,965.24
2017-03-26T12:44:16.593Z,965.29
2017-03-26T12:44:57.182Z,965.27
2017-03-26T12:45:37.771Z,965.34
2017-03-26T12:46:18.346Z,965.23
2017-03-26T12:46:58.926Z,965.33
2017-03-26T12:47:39.529Z,965.26
2017-03-26T12:48:20.109Z,965.21
2017-03-26T12:49:00.676Z,965.16
2017-03-26T12:49:41.267Z,965.18
2017-03-26T12:50:21.842Z,965.12
2017-03-26T12:51:02.422Z,965.14
2017-03-26T12:51:43.005Z,965.08
2017-03-26T12:52:23.591Z,965.09
2017-03-26T12:53:04.162Z,965.11
2017-03-26T12:53:44.757Z,965.14
2017-03-26T12:54:25.331Z,965.09
2017-03-26T12:55:05.914Z,965.07
2017-03-26T12:55:46.486Z,965.11
2017-03-26T12:56:27.061Z,965.25
2017-03-26T12:57:07.647Z,965.17
2017-03-26T12:57:48.214Z,965.17
2017-03-26T12:58:28.793Z,965.28
2017-03-26T12:59:09.380Z,965.18
2017-03-26T12:59:49.957Z,965.21
2017-03-26T13:00:30.540Z,965.16
2017-03-26T13:01:11.107Z,965.16
2017-03-26T13:01:51.695Z,965.19
2017-03-26T13:02:32.280Z,965.12
2017-03-26T13:03:12.850Z,965.17
2017-03-26T13:03:53.431Z,965.22
2017-03-26T13:04:34.009Z,965.17
2017-03-26T13:05:14.591Z,965.14
2017-03-26T13:05:55.172Z,965.15
2017-03-26T13:06:35.751Z,965.16
2017-03-26T13:07:16.335Z,965.09
2017-03-26T13:07:56.912Z,965.07
2017-03-26T13:08:37.488Z,965.05
2017-03-26T13:09:18.079Z,965.1
2017-03-26T13:09:58.652Z,965.05
2017-03-26T13:10:39.234Z,965.04
2017-03-26T13:11:19.813Z,965.08
2017-03-26T13:12:00.378Z,965.2
2017-03-26T13:12:40.969Z,965.12
2017-03-26T13:13:21.544Z,965.18
2017-03-26T13:14:02.114Z,965.12
2017-03-26T13:14:42.687Z,965.11
2017-03-26T13:15:23.279Z,965.09
2017-03-26T13:16:03.864Z,965.2
2017-03-26T13:16:44.440Z,965.07
2017-03-26T13:17:25.030Z,965.13
2017-03-26T13:18:05.605Z,965.15
2017-03-26T13:18:46.190Z,965.17
2017-03-26T13:19:26.769Z,965.11
2017-03-26T13:20:07.341Z,965.11
2017-03-26T13:20:47.918Z,965.09
2017-03-26T13:21:28.496Z,965.1
2017-03-26T13:22:09.070Z,965.07
2017-03-26T13:22:49.803Z,965.05
2017-03-26T13:23:30.768Z,965.04
2017-03-26T13:24:11.339Z,965.06
2017-03-26T13:24:51.934Z,965.07
2017-03-26T13:25:32.518Z,965.09
2017-03-26T13:26:13.091Z,965.1
2017-03-26T13:26:53.658Z,965.06
2017-03-26T13:27:34.233Z,965.09
2017-03-26T13:28:14.824Z,965.07
2017-03-26T13:28:55.405Z,965.05
2017-03-26T13:29:35.980Z,964.96
2017-03-26T13:30:16.570Z,965.02
2017-03-26T13:30:57.140Z,965.07
2017-03-26T13:31:37.722Z,964.99
2017-03-26T13:32:18.303Z,965.04
2017-03-26T13:32:58.880Z,965.02
2017-03-26T13:33:39.458Z,964.97
2017-03-26T13:34:20.041Z,965.03
2017-03-26T13:35:00.621Z,965.04
2017-03-26T13:35:41.205Z,965.08
2017-03-26T13:36:21.786Z,964.98
2017-03-26T13:37:02.371Z,965.06
2017-03-26T13:37:42.953Z,965.03
2017-03-26T13:38:23.533Z,965.03
2017-03-26T13:39:04.115Z,965.07
2017-03-26T13:39:44.692Z,965.08
2017-03-26T13:40:25.274Z,964.99
2017-03-26T13:41:05.843Z,964.97
2017-03-26T13:41:46.423Z,965.01
2017-03-26T13:42:27.014Z,965
2017-03-26T13:43:07.586Z,965.04
2017-03-26T13:43:48.187Z,965.04
2017-03-26T13:44:28.760Z,965.04
2017-03-26T13:45:09.334Z,965.05
2017-03-26T13:45:49.900Z,965.05
2017-03-26T13:46:30.485Z,965.03
2017-03-26T13:47:11.063Z,964.98
2017-03-26T13:47:51.643Z,964.99
2017-03-26T13:48:32.236Z,965.01
2017-03-26T13:49:12.802Z,964.98
2017-03-26T13:49:53.388Z,965.12
2017-03-26T13:50:33.962Z,965.03
2017-03-26T13:51:14.550Z,965.01
2017-03-26T13:51:55.127Z,964.98
2017-03-26T13:52:35.703Z,965.06
2017-03-26T13:53:16.290Z,965.04
2017-03-26T13:53:56.869Z,965.06
2017-03-26T13:54:37.455Z,965.08
2017-03-26T13:55:18.030Z,965.05
2017-03-26T13:55:58.611Z,965.1
2017-03-26T13:56:39.183Z,965.08
2017-03-26T13:57:19.761Z,965.11
2017-03-26T13:58:00.336Z,965.07
2017-03-26T13:58:40.920Z,964.95
2017-03-26T13:59:21.508Z,965.18
2017-03-26T14:00:02.077Z,965.11
2017-03-26T14:00:42.656Z,965.18
2017-03-26T14:01:23.235Z,965.15
2017-03-26T14:02:03.816Z,965.18
2017-03-26T14:02:44.403Z,965.11
2017-03-26T14:03:24.980Z,965.19
2017-03-26T14:04:05.565Z,965.27
2017-03-26T17:37:05.917Z,966.2
2017-03-26T17:37:46.477Z,966.19
2017-03-26T17:38:27.042Z,966.15
2017-03-26T17:39:07.598Z,966.15
2017-03-26T17:39:48.173Z,966.18
2017-03-26T17:40:28.749Z,966.19
2017-03-26T17:41:09.275Z,966.19
2017-03-26T17:41:49.831Z,966.2
2017-03-26T17:42:30.393Z,966.21
2017-03-26T17:43:10.969Z,966.19
2017-03-26T17:43:51.549Z,966.22
2017-03-26T17:44:32.117Z,966.25
2017-03-26T17:45:12.694Z,966.25
2017-03-26T17:45:53.254Z,966.24
2017-03-26T17:46:33.829Z,966.29
2017-03-26T17:47:14.386Z,966.24
2017-03-26T17:47:54.982Z,966.28
2017-03-26T17:48:35.536Z,966.29